createdAt,value
2019-04-03T00:00:43.504Z,2.02
2019-04-03T00:03:14.576Z,2.30
2019-04-03T00:05:57.808Z,2.25
2019-04-03T00:08:36.144Z,2.33
2019-04-03T00:11:09.588Z,1.92
2019-04-03T00:13:47.445Z,2.70
2019-04-03T00:16:33.161Z,2.30
2019-04-03T00:19:09.860Z,2.83
2019-04-03T00:22:04.079Z,3.30
2019-04-03T00:24:40.321Z,2.65
2019-04-03T00:27:33.586Z,2.33
2019-04-03T00:30:18.784Z,2.20
2019-04-03T00:32:53.498Z,2.42
2019-04-03T00:35:34.417Z,2.17
2019-04-03T00:38:13.868Z,2.80
2019-04-03T00:40:48.612Z,2.42
2019-04-03T00:43:20.983Z,2.83
2019-04-03T00:45:58.750Z,2.25
2019-04-03T00:48:37.719Z,2.95
2019-04-03T00:51:10.908Z,2.37
2019-04-03T00:53:47.069Z,2.90
2019-04-03T00:56:22.204Z,2.75
2019-04-03T00:58:55.407Z,1.92
2019-04-03T01:01:32.245Z,2.58
2019-04-03T01:04:44.071Z,2.30
2019-04-03T01:07:24.517Z,2.50
2019-04-03T01:10:16.010Z,2.58
2019-04-03T01:12:55.159Z,2.83
2019-04-03T01:15:32.446Z,2.47
2019-04-03T01:18:35.659Z,2.20
2019-04-03T01:21:31.943Z,2.92
2019-04-03T01:24:13.574Z,3.05
2019-04-03T01:27:30.494Z,3.00
2019-04-03T01:30:32.878Z,3.20
2019-04-03T01:33:09.745Z,2.55
2019-04-03T01:35:50.925Z,3.02
2019-04-03T01:45:17.905Z,3.10
2019-04-03T01:51:02.084Z,2.37
2019-04-03T01:54:33.714Z,2.72
2019-04-03T02:04:18.381Z,3.30
2019-04-03T02:07:49.808Z,3.27
2019-04-03T02:19:03.837Z,3.00
2019-04-03T03:33:24.219Z,3.60
2019-04-03T04:07:24.422Z,4.58
2019-04-03T04:09:56.248Z,5.65
2019-04-03T04:12:40.894Z,6.30
2019-04-03T04:15:12.631Z,4.92
2019-04-03T04:17:50.489Z,5.70
2019-04-03T04:20:26.659Z,5.50
2019-04-03T04:22:59.129Z,5.40
2019-04-03T04:25:37.312Z,5.25
2019-04-03T04:28:12.128Z,6.60
2019-04-03T04:30:46.225Z,6.05
2019-04-03T04:33:19.800Z,5.33
2019-04-03T04:35:52.901Z,4.70
2019-04-03T04:38:26.767Z,5.17
2019-04-03T04:41:01.380Z,6.72
2019-04-03T04:43:39.944Z,6.25
2019-04-03T04:46:13.498Z,5.80
2019-04-03T04:48:52.457Z,6.03
2019-04-03T04:51:23.935Z,5.60
2019-04-03T04:53:57.782Z,7.72
2019-04-03T04:56:31.471Z,7.90
2019-04-03T04:59:03.329Z,7.22
2019-04-03T05:01:37.517Z,6.20
2019-04-03T05:04:11.754Z,8.53
2019-04-03T05:06:43.201Z,7.40
2019-04-03T05:09:15.727Z,6.60
2019-04-03T05:11:48.154Z,6.55
2019-04-03T05:14:19.877Z,4.97
2019-04-03T05:16:50.197Z,5.97
2019-04-03T05:19:20.311Z,5.90
2019-04-03T05:21:52.893Z,7.20
2019-04-03T05:24:23.798Z,5.60
2019-04-03T05:26:54.050Z,6.45
2019-04-03T05:29:24.309Z,6.15
2019-04-03T05:31:54.415Z,7.60
2019-04-03T05:34:24.591Z,6.12
2019-04-03T05:36:54.920Z,6.62
2019-04-03T05:39:25.929Z,6.10
2019-04-03T05:41:59.534Z,6.75
2019-04-03T05:44:29.682Z,5.87
2019-04-03T05:47:03.858Z,6.65
2019-04-03T05:49:35.017Z,6.25
2019-04-03T05:52:07.620Z,6.30
2019-04-03T05:54:39.392Z,5.95
2019-04-03T05:57:11.905Z,6.62
2019-04-03T05:59:44.387Z,6.17
2019-04-03T06:02:20.715Z,6.90
2019-04-03T06:04:49.646Z,6.85
2019-04-03T06:07:21.297Z,5.55
2019-04-03T06:09:53.115Z,7.03
2019-04-03T06:12:25.256Z,6.05
2019-04-03T06:14:57.840Z,6.87
2019-04-03T06:17:31.078Z,6.70
2019-04-03T06:20:02.438Z,6.58
2019-04-03T06:22:32.678Z,6.22
2019-04-03T06:25:06.085Z,6.08
2019-04-03T06:27:36.436Z,5.85
2019-04-03T06:30:07.233Z,6.45
2019-04-03T06:32:41.334Z,6.28
2019-04-03T06:35:13.649Z,8.65
2019-04-03T06:37:53.086Z,7.15
2019-04-03T06:40:24.479Z,7.15
2019-04-03T06:42:54.767Z,7.70
2019-04-03T06:45:26.182Z,6.85
2019-04-03T06:47:56.794Z,7.83
2019-04-03T06:50:27.220Z,6.80
2019-04-03T06:52:57.968Z,8.13
2019-04-03T06:55:28.088Z,8.63
2019-04-03T06:57:58.706Z,8.55
2019-04-03T07:00:28.899Z,7.62
2019-04-03T07:02:59.120Z,7.65
2019-04-03T07:05:29.976Z,8.28
2019-04-03T07:08:01.192Z,5.92
2019-04-03T07:10:34.525Z,7.83
2019-04-03T07:13:06.827Z,6.30
2019-04-03T07:15:37.354Z,5.95
2019-04-03T07:18:07.495Z,5.58
2019-04-03T07:20:37.784Z,5.83
2019-04-03T07:23:08.452Z,5.55
2019-04-03T07:25:38.889Z,4.90
2019-04-03T07:28:09.555Z,5.60
2019-04-03T07:30:40.158Z,5.87
2019-04-03T07:33:11.811Z,5.80
2019-04-03T07:35:43.641Z,4.65
2019-04-03T07:38:15.226Z,4.92
2019-04-03T07:40:45.804Z,5.53
2019-04-03T07:43:16.708Z,5.03
2019-04-03T07:45:47.791Z,5.55
2019-04-03T07:48:23.412Z,5.20
2019-04-03T07:50:53.585Z,5.08
2019-04-03T07:53:25.386Z,5.95
2019-04-03T07:55:58.058Z,5.55
2019-04-03T07:58:30.619Z,4.55
2019-04-03T08:01:00.327Z,5.05
2019-04-03T08:03:32.482Z,3.30
2019-04-03T08:06:03.541Z,3.80
2019-04-03T08:08:36.147Z,3.60
2019-04-03T08:11:07.994Z,3.83
2019-04-03T08:13:40.485Z,4.65
2019-04-03T08:16:19.486Z,3.90
2019-04-03T08:18:47.181Z,3.33
2019-04-03T08:21:21.451Z,3.67
2019-04-03T08:24:03.873Z,3.52
2019-04-03T08:27:03.698Z,3.80
2019-04-03T08:29:38.518Z,3.35
2019-04-03T08:32:08.608Z,3.20
2019-04-03T08:34:40.188Z,3.50
2019-04-03T08:37:28.807Z,3.00
2019-04-03T08:39:50.950Z,3.33
2019-04-03T08:42:27.503Z,3.10
2019-04-03T08:45:07.492Z,4.60
2019-04-03T08:47:38.822Z,4.35
2019-04-03T08:50:17.728Z,3.80
2019-04-03T08:52:50.635Z,4.70
2019-04-03T08:55:21.911Z,3.70
2019-04-03T08:57:59.731Z,3.80
2019-04-03T09:00:33.877Z,4.30
2019-04-03T09:03:08.572Z,3.05
2019-04-03T09:05:38.736Z,3.98
2019-04-03T09:08:10.960Z,3.70
2019-04-03T09:10:47.542Z,3.77
2019-04-03T09:13:22.582Z,3.02
2019-04-03T09:15:58.496Z,3.72
2019-04-03T09:18:30.083Z,3.40
2019-04-03T09:21:05.166Z,3.17
2019-04-03T09:23:36.904Z,3.10
2019-04-03T09:26:07.130Z,4.35
2019-04-03T09:28:41.904Z,4.33
2019-04-03T09:31:21.253Z,4.40
2019-04-03T09:33:56.252Z,3.65
2019-04-03T09:36:34.348Z,3.42
2019-04-03T09:39:12.897Z,4.97
2019-04-03T09:41:43.634Z,3.58
2019-04-03T09:44:19.488Z,3.30
2019-04-03T09:46:52.408Z,3.40
2019-04-03T09:49:24.437Z,3.30
2019-04-03T09:51:57.071Z,3.50
2019-04-03T09:54:34.064Z,3.27
2019-04-03T09:57:05.881Z,3.40
2019-04-03T09:59:38.627Z,4.00
2019-04-03T10:02:11.792Z,2.90
2019-04-03T10:04:45.847Z,3.08
2019-04-03T10:07:19.985Z,2.08
2019-04-03T10:09:54.401Z,2.60
2019-04-03T10:12:25.775Z,2.70
2019-04-03T10:14:57.035Z,2.52
2019-04-03T10:17:31.387Z,2.80
2019-04-03T10:20:05.399Z,2.80
2019-04-03T10:22:39.851Z,2.80
2019-04-03T10:25:11.491Z,2.20
2019-04-03T10:27:43.714Z,2.42
2019-04-03T10:30:17.089Z,3.22
2019-04-03T10:32:51.394Z,2.37
2019-04-03T10:35:25.381Z,3.00
2019-04-03T10:37:57.733Z,2.55
2019-04-03T10:40:33.714Z,2.45
2019-04-03T10:43:05.611Z,3.20
2019-04-03T10:45:37.000Z,2.60
2019-04-03T10:48:07.348Z,2.62
2019-04-03T10:50:44.990Z,2.50
2019-04-03T10:53:10.299Z,3.40
2019-04-03T10:55:40.562Z,2.87
2019-04-03T10:58:13.801Z,2.80
2019-04-03T11:00:46.754Z,2.98
2019-04-03T11:03:20.619Z,3.00
2019-04-03T11:05:54.143Z,3.10
2019-04-03T11:08:25.975Z,2.55
2019-04-03T11:11:04.636Z,2.95
2019-04-03T11:13:40.401Z,3.72
2019-04-03T11:16:15.932Z,2.65
2019-04-03T11:18:59.014Z,3.05
2019-04-03T11:21:28.775Z,3.02
2019-04-03T11:24:04.378Z,2.95
2019-04-03T11:26:52.675Z,3.15
2019-04-03T11:30:11.914Z,3.62
2019-04-03T11:32:50.519Z,3.33
2019-04-03T11:35:23.950Z,4.15
2019-04-03T11:38:26.189Z,3.60
2019-04-03T11:40:53.368Z,3.33
2019-04-03T11:43:24.448Z,3.75
2019-04-03T11:46:02.999Z,3.22
2019-04-03T11:48:38.223Z,3.80
2019-04-03T11:51:08.629Z,3.75
2019-04-03T11:53:44.757Z,3.35
2019-04-03T11:56:16.993Z,4.20
2019-04-03T11:58:49.936Z,3.80
2019-04-03T12:01:20.899Z,4.72
2019-04-03T12:03:55.584Z,4.62
2019-04-03T12:06:27.566Z,3.95
2019-04-03T12:09:01.235Z,3.62
2019-04-03T12:11:34.023Z,3.92
2019-04-03T12:14:04.920Z,4.30
2019-04-03T12:16:37.542Z,4.20
2019-04-03T12:19:17.107Z,3.75
2019-04-03T12:21:49.810Z,4.67
2019-04-03T12:24:21.682Z,4.55
2019-04-03T12:26:55.491Z,3.75
2019-04-03T12:29:27.594Z,5.03
2019-04-03T12:31:58.163Z,4.40
2019-04-03T12:34:28.462Z,5.60
2019-04-03T12:36:59.831Z,4.00
2019-04-03T12:39:30.827Z,4.25
2019-04-03T12:42:10.632Z,4.85
2019-04-03T12:44:40.978Z,5.25
2019-04-03T12:47:14.442Z,3.83
2019-04-03T12:49:44.821Z,3.90
2019-04-03T12:52:15.243Z,3.20
2019-04-03T12:54:48.644Z,3.83
2019-04-03T12:57:18.873Z,4.05
2019-04-03T12:59:51.332Z,4.05
2019-04-03T13:02:25.005Z,3.50
2019-04-03T13:04:55.897Z,4.17
2019-04-03T13:07:26.328Z,4.22
2019-04-03T13:09:57.401Z,3.60
2019-04-03T13:12:27.963Z,3.72
2019-04-03T13:14:58.291Z,3.95
2019-04-03T13:17:31.140Z,4.20
2019-04-03T13:20:05.552Z,3.85
2019-04-03T13:22:37.853Z,4.17
2019-04-03T13:25:13.017Z,4.62
2019-04-03T13:27:45.032Z,4.75
2019-04-03T13:30:16.868Z,5.33
2019-04-03T13:32:59.059Z,4.45
2019-04-03T13:35:22.742Z,5.00
2019-04-03T13:37:55.904Z,5.00
2019-04-03T13:40:26.768Z,6.10
2019-04-03T13:42:57.642Z,5.10
2019-04-03T13:45:30.540Z,5.55
2019-04-03T13:48:02.184Z,5.47
2019-04-03T13:50:36.962Z,5.45
2019-04-03T13:53:12.081Z,5.70
2019-04-03T13:55:48.084Z,5.97
2019-04-03T13:58:28.522Z,5.40
2019-04-03T14:01:09.274Z,4.95
2019-04-03T14:03:38.524Z,5.90
2019-04-03T14:06:09.629Z,5.20
2019-04-03T14:08:45.305Z,5.17
2019-04-03T14:11:17.817Z,5.20
2019-04-03T14:13:48.343Z,4.87
2019-04-03T14:16:22.370Z,4.22
2019-04-03T14:18:56.664Z,5.80
2019-04-03T14:21:29.380Z,6.55
2019-04-03T14:23:59.517Z,4.87
2019-04-03T14:26:30.969Z,4.70
2019-04-03T14:29:04.256Z,4.75
2019-04-03T14:31:37.661Z,3.98
2019-04-03T14:34:09.524Z,3.70
2019-04-03T14:36:41.440Z,3.70
2019-04-03T14:39:17.167Z,4.30
2019-04-03T14:41:54.877Z,4.55
2019-04-03T14:44:31.987Z,4.12
2019-04-03T14:47:04.475Z,4.83
2019-04-03T14:49:39.488Z,4.75
2019-04-03T14:52:14.944Z,4.75
2019-04-03T14:54:46.848Z,3.25
2019-04-03T14:57:23.176Z,4.00
2019-04-03T14:59:54.400Z,3.77
2019-04-03T15:02:29.049Z,2.90
2019-04-03T15:04:59.452Z,3.15
2019-04-03T15:07:29.831Z,2.80
2019-04-03T15:10:08.421Z,2.72
2019-04-03T15:12:43.632Z,2.05
2019-04-03T15:15:17.474Z,1.98
2019-04-03T15:17:56.670Z,2.75
2019-04-03T15:20:32.769Z,2.00
2019-04-03T15:23:04.930Z,2.55
2019-04-03T15:25:34.303Z,1.45
2019-04-03T15:28:08.927Z,2.00
2019-04-03T15:31:03.099Z,2.22
2019-04-03T15:34:02.762Z,2.33
2019-04-03T15:40:05.960Z,1.87
2019-04-03T15:46:13.504Z,2.95
2019-04-03T15:49:04.498Z,2.50
2019-04-03T15:51:49.197Z,2.92
2019-04-03T15:54:53.195Z,2.92
2019-04-03T15:57:50.048Z,0.88
2019-04-03T16:00:44.046Z,1.45
2019-04-03T16:03:32.351Z,1.40
2019-04-03T16:06:09.718Z,1.40
2019-04-03T16:08:50.345Z,1.10
2019-04-03T16:11:31.308Z,0.80
2019-04-03T16:14:11.466Z,0.88
2019-04-03T16:16:44.639Z,0.95
2019-04-03T16:19:22.451Z,0.62
2019-04-03T16:21:58.276Z,0.90
2019-04-03T16:24:39.457Z,1.00
2019-04-03T16:27:16.094Z,0.72
2019-04-03T16:29:49.240Z,0.80
2019-04-03T16:32:38.031Z,1.12
2019-04-03T16:35:12.741Z,0.80
2019-04-03T16:37:55.014Z,0.80
2019-04-03T16:40:25.249Z,0.60
2019-04-03T16:42:55.654Z,0.50
2019-04-03T16:45:25.827Z,0.60
2019-04-03T16:47:56.076Z,0.50
2019-04-03T16:50:28.698Z,0.68
2019-04-03T16:53:01.057Z,0.72
2019-04-03T16:55:34.941Z,0.70
2019-04-03T16:58:06.837Z,0.50
2019-04-03T17:00:40.957Z,0.47
2019-04-03T17:03:15.147Z,0.62
2019-04-03T17:05:53.165Z,0.45
2019-04-03T17:08:25.937Z,0.72
2019-04-03T17:10:56.127Z,0.70
2019-04-03T17:13:52.121Z,0.57
2019-04-03T17:16:21.353Z,0.80
2019-04-03T17:18:51.493Z,0.93
2019-04-03T17:21:22.322Z,0.50
2019-04-03T17:23:52.535Z,0.68
2019-04-03T17:26:24.120Z,0.55
2019-04-03T17:29:02.517Z,0.90
2019-04-03T17:31:28.457Z,0.50
2019-04-03T17:34:00.716Z,0.70
2019-04-03T17:36:30.950Z,0.53
2019-04-03T17:39:04.658Z,0.50
2019-04-03T17:41:37.662Z,0.57
2019-04-03T17:44:12.043Z,0.57
2019-04-03T17:46:49.437Z,0.80
2019-04-03T17:49:24.425Z,0.60
2019-04-03T17:52:00.140Z,0.47
2019-04-03T17:54:46.337Z,0.70
2019-04-03T17:57:29.903Z,0.60
2019-04-03T18:00:02.772Z,0.57
2019-04-03T18:03:19.506Z,0.85
2019-04-03T18:05:50.197Z,0.80
2019-04-03T18:08:23.392Z,0.60
2019-04-03T18:10:55.632Z,1.27
2019-04-03T18:13:28.114Z,0.68
2019-04-03T18:16:04.524Z,3.62
2019-04-03T18:18:35.848Z,8.35
2019-04-03T18:21:06.271Z,4.53
2019-04-03T19:32:20.434Z,1.12
2019-04-03T20:27:39.239Z,3.33
2019-04-03T20:30:10.764Z,2.10
2019-04-03T21:04:54.759Z,0.80
2019-04-03T21:19:31.640Z,0.70
